Time;durP1;ratioP1;P1;durP2;ratioP2;P2;SDS_P1;SDS_P2;PMS_P1;PMS_P2;Temp;Humidity;BMP_temperature;BMP_pressure;BME280_temperature;BME280_humidity;BME280_pressure;Samples;Min_cycle;Max_cycle;Signal;HPM_P1;HPM_P2
2022/09/01 00:00:01;;;;;;;1.43;1.00;;;;;;;;;;5056011;28;20721;-77
2022/09/01 00:02:30;;;;;;;2.33;1.10;;;;;;;;;;5056214;28;20537;-77
2022/09/01 00:05:03;;;;;;;3.63;1.20;;;;;;;;;;5055043;28;20216;-77
2022/09/01 00:07:33;;;;;;;1.93;0.90;;;;;;;;;;5055573;28;20198;-77
2022/09/01 00:10:02;;;;;;;1.20;1.10;;;;;;;;;;5056069;28;20249;-77
2022/09/01 00:12:30;;;;;;;1.40;1.10;;;;;;;;;;5055688;28;20711;-77
2022/09/01 00:14:59;;;;;;;2.00;1.13;;;;;;;;;;5055525;28;20210;-77
2022/09/01 00:17:29;;;;;;;2.27;1.20;;;;;;;;;;5069188;28;20659;-77
2022/09/01 00:19:57;;;;;;;1.97;1.00;;;;;;;;;;5055545;28;20226;-77
2022/09/01 00:22:28;;;;;;;1.13;1.00;;;;;;;;;;5064817;28;20198;-77
2022/09/01 00:24:57;;;;;;;1.90;1.00;;;;;;;;;;5075823;28;20191;-77
2022/09/01 00:27:25;;;;;;;2.10;1.00;;;;;;;;;;5076338;28;20209;-77
2022/09/01 00:29:58;;;;;;;2.03;1.10;;;;;;;;;;5076581;28;20226;-77
2022/09/01 00:32:26;;;;;;;2.57;1.00;;;;;;;;;;5074295;28;20268;-76
2022/09/01 00:34:55;;;;;;;1.73;1.20;;;;;;;;;;5074640;28;20202;-77
2022/09/01 00:37:23;;;;;;;0.90;0.90;;;;;;;;;;5074974;28;20201;-78
2022/09/01 00:39:53;;;;;;;3.20;1.10;;;;;;;;;;5075097;28;20217;-78
2022/09/01 00:42:22;;;;;;;1.20;1.10;;;;;;;;;;5075443;28;20209;-77
2022/09/01 00:44:50;;;;;;;2.07;1.20;;;;;;;;;;5074870;28;20563;-76
2022/09/01 00:47:19;;;;;;;2.20;1.20;;;;;;;;;;5067170;28;20205;-77
2022/09/01 00:49:50;;;;;;;1.77;1.17;;;;;;;;;;5074054;28;20222;-77
2022/09/01 00:52:21;;;;;;;3.10;1.10;;;;;;;;;;5063650;28;20219;-78
2022/09/01 00:54:51;;;;;;;1.53;1.17;;;;;;;;;;5075331;28;20218;-77
2022/09/01 00:57:21;;;;;;;1.47;1.10;;;;;;;;;;5075685;28;20655;-77
2022/09/01 00:59:52;;;;;;;2.20;1.23;;;;;;;;;;5071366;28;20223;-77
2022/09/01 01:02:20;;;;;;;1.77;1.20;;;;;;;;;;5056130;28;20336;-77
2022/09/01 01:04:51;;;;;;;1.57;1.20;;;;;;;;;;5055088;28;20227;-77
2022/09/01 01:07:21;;;;;;;3.63;1.17;;;;;;;;;;5065573;28;20217;-77
2022/09/01 01:09:50;;;;;;;1.97;1.40;;;;;;;;;;5075658;28;20695;-78
2022/09/01 01:12:20;;;;;;;2.23;0.90;;;;;;;;;;5075795;28;20595;-77
2022/09/01 01:14:50;;;;;;;2.30;1.17;;;;;;;;;;5071358;28;20568;-77
2022/09/01 01:17:19;;;;;;;1.17;1.07;;;;;;;;;;5061215;28;20667;-77
2022/09/01 01:25:27;;;;;;;2.83;1.43;;;;;;;;;;5061760;28;20696;-77
2022/09/01 01:28:04;;;;;;;2.70;1.00;;;;;;;;;;5054651;28;20206;-77
2022/09/01 01:30:35;;;;;;;1.20;1.10;;;;;;;;;;5054792;28;20226;-77
2022/09/01 01:33:04;;;;;;;1.17;1.10;;;;;;;;;;5055281;28;20215;-77
2022/09/01 01:35:33;;;;;;;1.43;1.33;;;;;;;;;;5055130;28;20572;-77
2022/09/01 01:38:06;;;;;;;2.10;1.20;;;;;;;;;;5067436;28;20214;-77
2022/09/01 01:40:35;;;;;;;1.83;0.90;;;;;;;;;;5075239;28;20701;-77
2022/09/01 01:43:04;;;;;;;1.87;1.20;;;;;;;;;;5071159;28;20198;-77
2022/09/01 01:45:33;;;;;;;1.20;1.10;;;;;;;;;;5074813;28;20199;-77
2022/09/01 01:48:09;;;;;;;1.30;1.20;;;;;;;;;;5057482;28;20670;-77
2022/09/01 01:50:38;;;;;;;1.30;1.10;;;;;;;;;;5071395;28;20225;-77
2022/09/01 01:53:08;;;;;;;2.07;1.40;;;;;;;;;;5059111;28;20312;-77
2022/09/01 01:55:42;;;;;;;1.30;1.20;;;;;;;;;;5063522;28;20199;-77
2022/09/01 01:58:13;;;;;;;1.13;1.03;;;;;;;;;;5058763;28;20192;-77
2022/09/01 02:00:43;;;;;;;1.30;1.20;;;;;;;;;;5058801;28;20223;-77
2022/09/01 02:03:16;;;;;;;1.63;1.30;;;;;;;;;;5058102;28;20207;-77
2022/09/01 02:05:44;;;;;;;1.53;1.10;;;;;;;;;;5057918;28;20203;-77
2022/09/01 02:08:14;;;;;;;1.20;1.10;;;;;;;;;;5068835;28;20267;-77
2022/09/01 02:10:45;;;;;;;1.47;1.30;;;;;;;;;;5078697;28;20664;-77
2022/09/01 02:13:15;;;;;;;1.10;1.00;;;;;;;;;;5077962;28;20226;-77
2022/09/01 02:15:46;;;;;;;2.17;1.20;;;;;;;;;;5061490;28;20203;-77
2022/09/01 02:18:17;;;;;;;1.70;1.27;;;;;;;;;;5078058;28;20259;-77
2022/09/01 02:20:46;;;;;;;1.80;1.43;;;;;;;;;;5076631;28;20715;-77
2022/09/01 02:23:16;;;;;;;2.20;1.20;;;;;;;;;;5078128;28;20210;-77
2022/09/01 02:25:46;;;;;;;3.17;1.20;;;;;;;;;;5077928;28;20286;-77
2022/09/01 02:28:39;;;;;;;3.63;1.40;;;;;;;;;;5078280;28;20663;-77
2022/09/01 02:31:08;;;;;;;3.87;1.40;;;;;;;;;;5077594;28;20249;-77
2022/09/01 02:33:38;;;;;;;2.17;1.37;;;;;;;;;;5078083;28;20626;-77
2022/09/01 02:36:08;;;;;;;1.30;1.20;;;;;;;;;;5057276;28;20241;-77
2022/09/01 02:38:38;;;;;;;2.03;1.20;;;;;;;;;;5058142;28;20261;-77
2022/09/01 02:41:08;;;;;;;2.80;1.30;;;;;;;;;;5057398;28;20227;-77
2022/09/01 02:43:38;;;;;;;1.80;1.50;;;;;;;;;;5058016;28;20195;-77
2022/09/01 02:46:07;;;;;;;1.27;1.17;;;;;;;;;;5057415;28;20215;-77
2022/09/01 02:48:37;;;;;;;1.53;1.40;;;;;;;;;;5057673;28;20610;-77
2022/09/01 02:51:06;;;;;;;1.80;1.47;;;;;;;;;;5065261;28;20752;-77
2022/09/01 02:53:35;;;;;;;1.50;1.40;;;;;;;;;;5077504;28;20226;-77
2022/09/01 02:56:08;;;;;;;1.97;1.30;;;;;;;;;;5077098;28;20202;-77
2022/09/01 02:58:44;;;;;;;1.80;1.50;;;;;;;;;;5077453;28;20210;-77
2022/09/01 03:01:14;;;;;;;1.93;1.70;;;;;;;;;;5075341;28;20695;-77
2022/09/01 03:03:42;;;;;;;1.53;1.43;;;;;;;;;;5058431;28;20656;-77
2022/09/01 03:06:11;;;;;;;1.73;1.40;;;;;;;;;;5075654;28;20585;-77
2022/09/01 03:08:40;;;;;;;1.63;1.47;;;;;;;;;;5076086;28;20213;-77
2022/09/01 03:11:10;;;;;;;1.90;1.33;;;;;;;;;;5069423;28;20666;-77
2022/09/01 03:13:42;;;;;;;2.03;1.60;;;;;;;;;;5057140;28;20299;-77
2022/09/01 03:16:11;;;;;;;4.70;1.80;;;;;;;;;;5057296;28;20199;-77
2022/09/01 03:18:39;;;;;;;2.00;1.80;;;;;;;;;;5057137;28;20207;-77
2022/09/01 03:21:08;;;;;;;1.67;1.50;;;;;;;;;;5065463;28;20215;-77
2022/09/01 03:23:37;;;;;;;2.33;1.50;;;;;;;;;;5056753;28;20269;-77
2022/09/01 03:26:06;;;;;;;2.10;1.43;;;;;;;;;;5056022;28;20207;-77
2022/09/01 03:28:36;;;;;;;1.83;1.40;;;;;;;;;;5056553;28;20199;-77
2022/09/01 03:31:07;;;;;;;2.07;1.53;;;;;;;;;;5056645;28;20598;-77
2022/09/01 03:33:36;;;;;;;1.97;1.50;;;;;;;;;;5064403;28;20222;-77
2022/09/01 03:36:05;;;;;;;1.63;1.53;;;;;;;;;;5075492;28;20208;-77
2022/09/01 03:38:43;;;;;;;1.93;1.70;;;;;;;;;;5076560;28;20577;-77
2022/09/01 03:41:11;;;;;;;1.70;1.60;;;;;;;;;;5076312;28;20745;-77
2022/09/01 03:43:40;;;;;;;3.10;1.60;;;;;;;;;;5071317;28;20230;-77
2022/09/01 03:46:19;;;;;;;2.97;1.67;;;;;;;;;;5059800;28;20207;-77
2022/09/01 03:48:49;;;;;;;1.87;1.60;;;;;;;;;;5056560;28;20226;-77
2022/09/01 03:51:19;;;;;;;5.03;1.93;;;;;;;;;;5069447;28;20562;-77
2022/09/01 03:53:47;;;;;;;2.57;1.70;;;;;;;;;;5075925;28;20276;-77
2022/09/01 03:56:16;;;;;;;1.60;1.50;;;;;;;;;;5055703;28;20641;-77
2022/09/01 03:58:45;;;;;;;2.80;1.57;;;;;;;;;;5069508;28;20687;-77
2022/09/01 04:01:16;;;;;;;2.70;1.87;;;;;;;;;;5075542;28;20233;-77
2022/09/01 04:03:47;;;;;;;1.87;1.50;;;;;;;;;;5066529;28;20203;-77
2022/09/01 04:06:18;;;;;;;1.50;1.40;;;;;;;;;;5055708;28;20218;-77
2022/09/01 04:08:46;;;;;;;1.93;1.60;;;;;;;;;;5056644;28;20237;-77
2022/09/01 04:11:17;;;;;;;2.03;1.60;;;;;;;;;;5071963;28;20250;-77
2022/09/01 04:13:47;;;;;;;3.27;1.80;;;;;;;;;;5055801;28;20238;-77
2022/09/01 04:19:14;;;;;;;1.77;1.67;;;;;;;;;;5075940;28;20223;-77
2022/09/01 04:21:43;;;;;;;3.17;1.70;;;;;;;;;;5055382;28;20233;-77
2022/09/01 04:24:14;;;;;;;3.17;1.80;;;;;;;;;;5060371;28;20248;-77
2022/09/01 04:26:46;;;;;;;2.00;1.80;;;;;;;;;;5074393;28;20198;-76
2022/09/01 04:29:17;;;;;;;3.20;2.10;;;;;;;;;;5055423;28;20214;-77
2022/09/01 04:31:52;;;;;;;1.70;1.60;;;;;;;;;;5055815;28;20533;-77
2022/09/01 04:34:21;;;;;;;3.37;2.00;;;;;;;;;;5055268;28;20226;-77
2022/09/01 04:36:52;;;;;;;3.63;1.90;;;;;;;;;;5056701;28;20264;-77
2022/09/01 04:39:22;;;;;;;2.73;1.83;;;;;;;;;;5062163;28;20209;-77
2022/09/01 04:41:51;;;;;;;2.20;1.90;;;;;;;;;;5070538;28;20206;-77
2022/09/01 04:44:21;;;;;;;2.23;1.60;;;;;;;;;;5074335;28;20195;-77
2022/09/01 04:46:50;;;;;;;3.27;2.03;;;;;;;;;;5063190;28;20585;-77
2022/09/01 04:49:22;;;;;;;3.47;1.83;;;;;;;;;;5055001;28;20203;-77
2022/09/01 04:51:51;;;;;;;5.10;2.03;;;;;;;;;;5055212;28;20284;-77
2022/09/01 04:54:22;;;;;;;3.00;2.03;;;;;;;;;;5057301;28;22151;-77
2022/09/01 04:56:53;;;;;;;3.67;2.33;;;;;;;;;;5057763;28;20221;-77
2022/09/01 04:59:25;;;;;;;3.37;1.90;;;;;;;;;;5073936;28;20229;-77
2022/09/01 05:01:56;;;;;;;1.87;1.77;;;;;;;;;;5066680;28;20725;-77
2022/09/01 05:04:26;;;;;;;2.87;1.90;;;;;;;;;;5071689;28;20277;-77
2022/09/01 05:06:59;;;;;;;1.97;1.80;;;;;;;;;;5067606;28;20214;-77
2022/09/01 05:09:29;;;;;;;2.27;1.90;;;;;;;;;;5055983;28;20199;-77
2022/09/01 05:12:09;;;;;;;4.40;2.10;;;;;;;;;;5073722;28;20215;-77
2022/09/01 05:14:47;;;;;;;2.87;2.23;;;;;;;;;;5074530;28;20693;-77
2022/09/01 05:17:17;;;;;;;2.13;1.97;;;;;;;;;;5072607;28;20198;-77
2022/09/01 05:19:47;;;;;;;2.73;2.10;;;;;;;;;;5073930;28;20709;-77
2022/09/01 05:22:16;;;;;;;2.47;2.13;;;;;;;;;;5069765;28;20206;-77
2022/09/01 05:24:45;;;;;;;4.57;1.97;;;;;;;;;;5072280;28;20210;-77
2022/09/01 05:27:14;;;;;;;3.17;2.00;;;;;;;;;;5058749;28;20214;-77
2022/09/01 05:29:44;;;;;;;2.10;1.90;;;;;;;;;;5058790;28;20227;-77
2022/09/01 05:32:13;;;;;;;2.27;2.00;;;;;;;;;;5074713;28;20209;-77
2022/09/01 05:34:44;;;;;;;2.40;2.10;;;;;;;;;;5067439;28;20231;-77
2022/09/01 05:37:13;;;;;;;2.00;1.90;;;;;;;;;;5059417;28;20183;-77
2022/09/01 05:39:42;;;;;;;2.67;2.10;;;;;;;;;;5073810;28;20227;-77
2022/09/01 05:42:10;;;;;;;2.57;2.07;;;;;;;;;;5061377;28;20214;-77
2022/09/01 05:44:42;;;;;;;4.37;2.50;;;;;;;;;;5068675;28;20199;-77
2022/09/01 05:47:12;;;;;;;3.60;2.00;;;;;;;;;;5062000;28;20207;-77
2022/09/01 05:49:52;;;;;;;6.63;2.70;;;;;;;;;;5058648;28;20345;-77
2022/09/01 05:52:24;;;;;;;2.60;2.40;;;;;;;;;;5057597;28;20206;-77
2022/09/01 05:54:54;;;;;;;2.40;2.20;;;;;;;;;;5057800;28;20223;-76
2022/09/01 05:57:23;;;;;;;4.43;2.57;;;;;;;;;;5057470;28;20203;-77
2022/09/01 06:00:02;;;;;;;2.53;2.20;;;;;;;;;;5057636;28;20250;-77
2022/09/01 06:02:32;;;;;;;2.43;2.23;;;;;;;;;;5057651;28;20207;-77
2022/09/01 06:05:02;;;;;;;2.50;2.30;;;;;;;;;;5056573;28;20209;-77
2022/09/01 06:07:30;;;;;;;3.20;2.40;;;;;;;;;;5057732;28;20221;-77
2022/09/01 06:09:59;;;;;;;2.67;2.20;;;;;;;;;;5057851;28;20253;-77
2022/09/01 06:12:27;;;;;;;2.70;2.13;;;;;;;;;;5057244;28;20652;-77
2022/09/01 06:14:57;;;;;;;2.23;1.80;;;;;;;;;;5070504;28;20265;-77
2022/09/01 06:17:28;;;;;;;2.43;2.20;;;;;;;;;;5063605;28;20217;-77
2022/09/01 06:19:57;;;;;;;2.23;2.03;;;;;;;;;;5060811;28;20555;-77
2022/09/01 06:22:28;;;;;;;2.10;2.00;;;;;;;;;;5057811;28;20199;-77
2022/09/01 06:24:58;;;;;;;2.43;2.20;;;;;;;;;;5058249;28;20253;-77
2022/09/01 06:27:30;;;;;;;2.30;2.10;;;;;;;;;;5064057;28;20225;-77
2022/09/01 06:29:58;;;;;;;2.37;2.17;;;;;;;;;;5078164;28;20226;-77
2022/09/01 06:32:27;;;;;;;3.40;2.10;;;;;;;;;;5078003;28;20241;-77
2022/09/01 06:34:59;;;;;;;2.80;1.90;;;;;;;;;;5075104;28;20235;-77
2022/09/01 06:37:29;;;;;;;2.13;1.90;;;;;;;;;;5056996;28;20660;-77
2022/09/01 06:39:57;;;;;;;2.70;1.87;;;;;;;;;;5057295;28;20230;-77
2022/09/01 06:42:27;;;;;;;1.70;1.60;;;;;;;;;;5057962;28;20200;-76
2022/09/01 06:44:55;;;;;;;2.77;1.70;;;;;;;;;;5057745;28;20199;-77
2022/09/01 06:47:27;;;;;;;3.90;1.80;;;;;;;;;;5072412;28;20222;-77
2022/09/01 06:49:57;;;;;;;1.63;1.53;;;;;;;;;;5067653;28;20262;-77
2022/09/01 06:52:26;;;;;;;2.10;1.53;;;;;;;;;;5058177;28;20203;-77
2022/09/01 06:54:56;;;;;;;4.60;1.93;;;;;;;;;;5062473;28;20234;-77
2022/09/01 06:57:26;;;;;;;3.03;1.83;;;;;;;;;;5058520;28;20214;-77
2022/09/01 07:00:16;;;;;;;2.17;1.60;;;;;;;;;;5057902;28;20646;-76
2022/09/01 07:03:08;;;;;;;4.07;1.50;;;;;;;;;;5057912;28;20256;-77
2022/09/01 07:05:39;;;;;;;2.90;1.70;;;;;;;;;;5074007;28;20670;-78
2022/09/01 07:08:27;;;;;;;3.00;1.77;;;;;;;;;;5075207;28;20245;-77
2022/09/01 07:10:58;;;;;;;3.13;1.53;;;;;;;;;;5057964;28;20223;-77
2022/09/01 07:13:46;;;;;;;3.23;1.73;;;;;;;;;;5057363;28;20642;-78
2022/09/01 07:16:39;;;;;;;2.13;1.40;;;;;;;;;;5065242;28;20223;-78
2022/09/01 07:19:20;;;;;;;3.70;1.60;;;;;;;;;;5060740;28;20214;-77
2022/09/01 07:21:48;;;;;;;2.43;1.80;;;;;;;;;;5057076;28;20203;-78
2022/09/01 07:24:38;;;;;;;2.50;1.40;;;;;;;;;;5057382;28;20199;-77
2022/09/01 07:27:09;;;;;;;3.93;1.50;;;;;;;;;;5057844;28;20259;-78
2022/09/01 07:29:39;;;;;;;3.70;1.23;;;;;;;;;;5056630;28;20255;-78
2022/09/01 07:32:09;;;;;;;3.80;1.52;;;;;;;;;;5056568;28;20211;-77
2022/09/01 07:34:58;;;;;;;2.97;1.45;;;;;;;;;;5056525;28;20207;-78
2022/09/01 07:37:28;;;;;;;2.22;1.38;;;;;;;;;;5061772;28;20221;-76
2022/09/01 07:40:20;;;;;;;1.40;1.20;;;;;;;;;;5075353;28;20271;-77
2022/09/01 07:43:15;;;;;;;2.33;1.30;;;;;;;;;;5075374;28;20264;-77
2022/09/01 07:45:46;;;;;;;2.25;1.40;;;;;;;;;;5075392;28;20229;-77
2022/09/01 07:48:19;;;;;;;3.60;1.60;;;;;;;;;;5075676;28;20602;-77
2022/09/01 07:51:07;;;;;;;1.85;1.35;;;;;;;;;;5067882;28;20684;-77
2022/09/01 07:53:56;;;;;;;3.53;1.65;;;;;;;;;;5056875;28;20608;-78
2022/09/01 07:56:25;;;;;;;2.78;1.63;;;;;;;;;;5076327;28;20233;-78
2022/09/01 07:58:55;;;;;;;2.25;1.50;;;;;;;;;;5075879;28;20206;-78
2022/09/01 08:01:24;;;;;;;3.28;1.65;;;;;;;;;;5076857;28;20699;-78
2022/09/01 08:03:54;;;;;;;2.53;1.75;;;;;;;;;;5065151;28;20261;-78
2022/09/01 08:06:25;;;;;;;2.10;1.67;;;;;;;;;;5055103;28;20203;-79
2022/09/01 08:08:56;;;;;;;2.80;1.60;;;;;;;;;;5054919;28;20257;-78
2022/09/01 08:11:27;;;;;;;2.88;1.50;;;;;;;;;;5056015;28;20357;-78
2022/09/01 08:14:17;;;;;;;2.42;1.60;;;;;;;;;;5055161;28;20259;-78
2022/09/01 08:16:46;;;;;;;1.42;1.30;;;;;;;;;;5064512;28;20210;-78
2022/09/01 08:19:22;;;;;;;2.78;1.40;;;;;;;;;;5068706;28;20264;-78
2022/09/01 08:21:51;;;;;;;3.22;1.50;;;;;;;;;;5055860;28;20214;-78
2022/09/01 08:24:20;;;;;;;2.10;1.40;;;;;;;;;;5055607;28;20207;-79
2022/09/01 08:26:49;;;;;;;2.38;1.33;;;;;;;;;;5055406;28;20241;-78
2022/09/01 08:29:18;;;;;;;1.67;1.23;;;;;;;;;;5055960;28;20634;-78
2022/09/01 08:31:47;;;;;;;2.25;1.30;;;;;;;;;;5055878;28;20261;-78
2022/09/01 08:34:16;;;;;;;3.45;1.45;;;;;;;;;;5062955;28;20210;-78
2022/09/01 08:36:45;;;;;;;2.20;1.50;;;;;;;;;;5072126;28;20663;-78
2022/09/01 08:39:13;;;;;;;2.35;1.30;;;;;;;;;;5055217;28;20207;-77
2022/09/01 08:41:43;;;;;;;3.00;1.40;;;;;;;;;;5055644;28;20285;-78
2022/09/01 08:44:21;;;;;;;2.03;1.33;;;;;;;;;;5055759;28;20687;-78
2022/09/01 08:46:55;;;;;;;2.97;1.60;;;;;;;;;;5065107;28;20210;-78
2022/09/01 08:49:25;;;;;;;4.57;1.38;;;;;;;;;;5055580;28;20682;-78
2022/09/01 08:51:57;;;;;;;2.17;1.50;;;;;;;;;;5055280;28;20206;-78
2022/09/01 08:54:33;;;;;;;4.05;1.70;;;;;;;;;;5060593;28;20214;-78
2022/09/01 08:57:04;;;;;;;2.45;1.23;;;;;;;;;;5075366;28;20309;-77
2022/09/01 08:59:34;;;;;;;2.40;1.60;;;;;;;;;;5074738;28;20232;-75
2022/09/01 09:02:07;;;;;;;1.77;1.50;;;;;;;;;;5074182;28;20207;-78
2022/09/01 09:04:46;;;;;;;3.05;1.33;;;;;;;;;;5066471;28;20195;-78
2022/09/01 09:07:22;;;;;;;2.35;1.60;;;;;;;;;;5055673;28;20194;-78
2022/09/01 09:09:52;;;;;;;3.67;1.77;;;;;;;;;;5055451;28;20234;-78
2022/09/01 09:12:31;;;;;;;2.65;1.40;;;;;;;;;;5055575;28;20245;-78
2022/09/01 09:15:05;;;;;;;4.28;1.58;;;;;;;;;;5055423;28;20203;-77
2022/09/01 09:17:36;;;;;;;3.38;1.38;;;;;;;;;;5055425;28;20709;-78
2022/09/01 09:20:05;;;;;;;4.13;1.50;;;;;;;;;;5055716;28;20226;-78
2022/09/01 09:22:34;;;;;;;2.22;1.50;;;;;;;;;;5055126;28;20729;-78
2022/09/01 09:25:06;;;;;;;2.85;1.58;;;;;;;;;;5055099;28;20207;-78
2022/09/01 09:27:36;;;;;;;2.83;1.35;;;;;;;;;;5055396;28;20586;-78
2022/09/01 09:30:08;;;;;;;3.40;1.60;;;;;;;;;;5055291;28;20241;-78
2022/09/01 09:32:50;;;;;;;2.38;1.42;;;;;;;;;;5055515;28;20183;-78
2022/09/01 09:35:39;;;;;;;4.13;1.50;;;;;;;;;;5054980;28;20226;-76
2022/09/01 09:38:19;;;;;;;2.65;1.20;;;;;;;;;;5052846;28;20268;-75
2022/09/01 09:41:09;;;;;;;1.98;1.10;;;;;;;;;;5054808;28;20230;-78
2022/09/01 09:43:47;;;;;;;2.28;1.13;;;;;;;;;;5053361;28;20242;-78
2022/09/01 09:46:25;;;;;;;4.03;1.30;;;;;;;;;;5054533;28;20257;-76
2022/09/01 09:49:11;;;;;;;2.90;1.40;;;;;;;;;;5055289;28;20252;-78
2022/09/01 09:51:41;;;;;;;1.77;1.20;;;;;;;;;;5054785;28;20192;-78
2022/09/01 09:54:14;;;;;;;2.75;1.10;;;;;;;;;;5055191;28;20223;-78
2022/09/01 09:56:44;;;;;;;1.35;0.80;;;;;;;;;;5055306;28;20231;-78
2022/09/01 09:59:22;;;;;;;2.38;1.17;;;;;;;;;;5071528;28;20202;-78
2022/09/01 10:02:25;;;;;;;1.45;0.90;;;;;;;;;;5075062;28;20202;-79
2022/09/01 10:04:56;;;;;;;1.70;1.00;;;;;;;;;;5074641;28;20609;-78
2022/09/01 10:07:29;;;;;;;2.33;1.05;;;;;;;;;;5074509;28;20321;-76
2022/09/01 10:10:00;;;;;;;1.30;1.10;;;;;;;;;;5074495;28;20291;-78
2022/09/01 10:12:29;;;;;;;1.65;1.20;;;;;;;;;;5068211;28;20645;-77
2022/09/01 10:15:00;;;;;;;2.40;1.00;;;;;;;;;;5056091;28;20293;-78
2022/09/01 10:17:38;;;;;;;2.80;1.10;;;;;;;;;;5057606;28;20575;-78
2022/09/01 10:20:12;;;;;;;1.98;1.00;;;;;;;;;;5056573;28;20229;-78
2022/09/01 10:22:41;;;;;;;2.35;0.80;;;;;;;;;;5058421;28;20261;-77
2022/09/01 10:25:14;;;;;;;4.65;1.05;;;;;;;;;;5062549;28;20256;-77
2022/09/01 10:27:45;;;;;;;1.88;1.05;;;;;;;;;;5057181;28;20203;-77
2022/09/01 10:30:16;;;;;;;1.73;1.00;;;;;;;;;;5057369;28;20727;-78
2022/09/01 10:32:50;;;;;;;4.57;1.15;;;;;;;;;;5057590;28;20210;-77
2022/09/01 10:35:25;;;;;;;1.27;0.90;;;;;;;;;;5056867;28;20278;-78
2022/09/01 10:37:54;;;;;;;4.22;1.02;;;;;;;;;;5057453;28;20718;-79
2022/09/01 10:40:39;;;;;;;2.33;0.88;;;;;;;;;;5056882;28;20229;-78
2022/09/01 10:43:30;;;;;;;4.47;1.13;;;;;;;;;;5057369;28;20249;-78
2022/09/01 10:46:40;;;;;;;2.92;1.00;;;;;;;;;;5060624;28;20209;-78
2022/09/01 10:49:34;;;;;;;2.53;0.70;;;;;;;;;;5076959;28;20202;-78
2022/09/01 10:52:04;;;;;;;2.15;0.90;;;;;;;;;;5045894;28;20210;-77
2022/09/01 10:55:04;;;;;;;1.15;0.93;;;;;;;;;;5071697;28;20260;-77
2022/09/01 10:57:41;;;;;;;1.70;0.75;;;;;;;;;;5069760;28;20225;-78
2022/09/01 11:00:36;;;;;;;3.50;0.73;;;;;;;;;;5057535;28;20300;-78
2022/09/01 11:03:23;;;;;;;3.03;0.80;;;;;;;;;;5056442;28;20285;-77
2022/09/01 11:06:08;;;;;;;2.72;0.60;;;;;;;;;;5056092;28;20279;-77
2022/09/01 11:08:43;;;;;;;1.92;0.90;;;;;;;;;;5074209;28;20244;-77
2022/09/01 11:11:27;;;;;;;1.20;0.70;;;;;;;;;;5076414;28;20277;-78
2022/09/01 11:13:57;;;;;;;1.30;0.80;;;;;;;;;;5076508;28;20198;-77
2022/09/01 11:16:34;;;;;;;2.20;0.68;;;;;;;;;;5069601;28;20256;-78
2022/09/01 11:19:25;;;;;;;3.05;0.90;;;;;;;;;;5056220;28;20203;-78
2022/09/01 11:22:04;;;;;;;0.77;0.70;;;;;;;;;;5061656;28;20198;-78
2022/09/01 11:24:51;;;;;;;2.70;0.82;;;;;;;;;;5069564;28;20237;-78
2022/09/01 11:27:53;;;;;;;1.10;0.80;;;;;;;;;;5056373;28;20186;-78
2022/09/01 11:30:22;;;;;;;3.03;0.75;;;;;;;;;;5055666;28;20230;-78
2022/09/01 11:33:03;;;;;;;2.15;0.90;;;;;;;;;;5056168;28;20229;-78
2022/09/01 11:35:32;;;;;;;0.60;0.60;;;;;;;;;;5055728;28;20198;-78
2022/09/01 11:38:03;;;;;;;0.80;0.80;;;;;;;;;;5056355;28;20255;-78
2022/09/01 11:40:34;;;;;;;0.57;0.50;;;;;;;;;;5055288;28;20272;-78
2022/09/01 11:43:05;;;;;;;1.17;0.90;;;;;;;;;;5056302;28;20187;-78
2022/09/01 11:45:44;;;;;;;0.70;0.65;;;;;;;;;;5055967;28;20188;-78
2022/09/01 11:48:14;;;;;;;1.27;0.60;;;;;;;;;;5067516;28;20233;-78
2022/09/01 11:50:42;;;;;;;1.88;0.82;;;;;;;;;;5055747;28;20235;-78
2022/09/01 11:53:13;;;;;;;5.13;0.90;;;;;;;;;;5055421;28;20249;-78
2022/09/01 11:55:44;;;;;;;0.50;0.50;;;;;;;;;;5055638;28;20262;-78
2022/09/01 11:58:13;;;;;;;2.60;0.80;;;;;;;;;;5055500;28;20762;-77
2022/09/01 12:00:46;;;;;;;1.30;0.63;;;;;;;;;;5055732;28;20218;-78
2022/09/01 12:03:25;;;;;;;1.55;0.60;;;;;;;;;;5056480;28;20206;-78
2022/09/01 12:05:58;;;;;;;0.60;0.60;;;;;;;;;;5055208;28;20309;-78
2022/09/01 12:08:29;;;;;;;0.98;0.80;;;;;;;;;;5055804;28;20190;-77
2022/09/01 12:11:05;;;;;;;2.03;0.60;;;;;;;;;;5054986;28;20226;-77
2022/09/01 12:13:33;;;;;;;1.33;0.82;;;;;;;;;;5055939;28;20224;-78
2022/09/01 12:16:03;;;;;;;1.92;0.60;;;;;;;;;;5054867;28;20226;-78
2022/09/01 12:18:47;;;;;;;1.58;0.63;;;;;;;;;;5055767;28;20600;-78
2022/09/01 12:21:19;;;;;;;2.83;0.50;;;;;;;;;;5054833;28;20223;-77
2022/09/01 12:23:48;;;;;;;1.20;0.80;;;;;;;;;;5054723;28;20191;-78
2022/09/01 12:26:19;;;;;;;0.52;0.52;;;;;;;;;;5055539;28;20622;-79
2022/09/01 12:28:48;;;;;;;0.63;0.55;;;;;;;;;;5055408;28;20202;-78
2022/09/01 12:31:17;;;;;;;6.28;0.88;;;;;;;;;;5054764;28;20700;-77
2022/09/01 12:33:46;;;;;;;13.98;1.50;;;;;;;;;;5054738;28;20214;-77
2022/09/01 12:36:16;;;;;;;1.17;0.85;;;;;;;;;;5053978;28;20207;-77
2022/09/01 12:38:44;;;;;;;0.60;0.60;;;;;;;;;;5054570;28;20218;-77
2022/09/01 12:41:32;;;;;;;0.95;0.57;;;;;;;;;;5055000;28;20227;-78
2022/09/01 12:44:16;;;;;;;0.77;0.60;;;;;;;;;;5054936;28;20257;-76
2022/09/01 12:46:45;;;;;;;1.33;0.60;;;;;;;;;;5053313;28;20209;-77
2022/09/01 12:49:20;;;;;;;0.47;0.47;;;;;;;;;;5052751;28;20195;-78
2022/09/01 12:51:49;;;;;;;0.40;0.40;;;;;;;;;;5062896;28;20194;-76
2022/09/01 12:54:25;;;;;;;0.73;0.50;;;;;;;;;;5070691;28;20723;-78
2022/09/01 12:56:57;;;;;;;3.25;0.70;;;;;;;;;;5054186;28;20206;-77
2022/09/01 12:59:27;;;;;;;0.60;0.60;;;;;;;;;;5062469;28;20227;-77
2022/09/01 13:02:23;;;;;;;1.35;0.82;;;;;;;;;;5072740;28;20256;-78
2022/09/01 13:04:52;;;;;;;1.67;0.90;;;;;;;;;;5073820;28;20293;-76
2022/09/01 13:07:20;;;;;;;0.65;0.65;;;;;;;;;;5063942;28;20210;-77
2022/09/01 13:09:48;;;;;;;1.83;0.70;;;;;;;;;;5075017;28;20218;-78
2022/09/01 13:12:20;;;;;;;0.70;0.70;;;;;;;;;;5074296;28;20195;-78
2022/09/01 13:14:49;;;;;;;0.55;0.55;;;;;;;;;;5067001;28;20587;-77
2022/09/01 13:17:20;;;;;;;1.33;0.60;;;;;;;;;;5062835;28;20265;-77
2022/09/01 13:19:48;;;;;;;1.08;0.70;;;;;;;;;;5053495;28;20238;-78
2022/09/01 13:22:17;;;;;;;0.93;0.50;;;;;;;;;;5053294;28;20269;-77
2022/09/01 13:24:45;;;;;;;1.00;0.63;;;;;;;;;;5054592;28;20199;-78
2022/09/01 13:27:14;;;;;;;1.30;0.60;;;;;;;;;;5053709;28;20210;-77
2022/09/01 13:29:52;;;;;;;37.42;2.90;;;;;;;;;;5053508;28;20218;-78
2022/09/01 13:32:21;;;;;;;13.98;1.00;;;;;;;;;;5052798;28;20207;-77
2022/09/01 13:34:52;;;;;;;4.63;0.88;;;;;;;;;;5068760;28;20240;-77
2022/09/01 13:37:24;;;;;;;2.97;0.80;;;;;;;;;;5059940;28;20199;-77
2022/09/01 13:39:53;;;;;;;0.70;0.55;;;;;;;;;;5053685;28;20273;-78
2022/09/01 13:42:21;;;;;;;1.40;0.52;;;;;;;;;;5067468;28;20256;-77
2022/09/01 13:44:57;;;;;;;2.50;0.57;;;;;;;;;;5073567;28;20240;-77
2022/09/01 13:47:25;;;;;;;1.02;0.73;;;;;;;;;;5073381;28;20205;-78
2022/09/01 13:49:57;;;;;;;1.73;0.70;;;;;;;;;;5071663;28;20625;-77
2022/09/01 13:52:36;;;;;;;4.00;0.80;;;;;;;;;;5063909;28;20190;-78
2022/09/01 13:55:05;;;;;;;0.60;0.60;;;;;;;;;;5074632;28;20198;-78
2022/09/01 13:57:34;;;;;;;0.65;0.60;;;;;;;;;;5073432;28;20644;-77
2022/09/01 14:00:09;;;;;;;0.63;0.50;;;;;;;;;;5067461;28;20317;-77
2022/09/01 14:02:38;;;;;;;2.28;0.88;;;;;;;;;;5077224;28;20636;-78
2022/09/01 14:05:07;;;;;;;3.97;0.90;;;;;;;;;;5070988;28;20210;-77
2022/09/01 14:07:35;;;;;;;2.63;0.73;;;;;;;;;;5057107;28;20249;-78
2022/09/01 14:10:06;;;;;;;1.58;0.60;;;;;;;;;;5059947;28;20227;-77
2022/09/01 14:12:35;;;;;;;1.67;0.85;;;;;;;;;;5062160;28;20199;-77
2022/09/01 14:15:05;;;;;;;4.25;0.60;;;;;;;;;;5074287;28;20226;-78
2022/09/01 14:17:42;;;;;;;6.15;0.98;;;;;;;;;;5067251;28;20206;-78
2022/09/01 14:20:13;;;;;;;3.53;1.10;;;;;;;;;;5062229;28;20221;-77
2022/09/01 14:22:41;;;;;;;3.30;0.82;;;;;;;;;;5075482;28;20198;-77
2022/09/01 14:25:10;;;;;;;11.10;1.15;;;;;;;;;;5066002;28;20268;-78
2022/09/01 14:27:41;;;;;;;0.68;0.63;;;;;;;;;;5074944;28;20571;-77
2022/09/01 14:30:14;;;;;;;2.55;0.68;;;;;;;;;;5062302;28;20212;-77
2022/09/01 14:32:43;;;;;;;1.40;0.65;;;;;;;;;;5061154;28;20194;-76
2022/09/01 14:35:12;;;;;;;0.77;0.75;;;;;;;;;;5073606;28;20652;-78
2022/09/01 14:37:41;;;;;;;0.80;0.50;;;;;;;;;;5075238;28;20194;-77
2022/09/01 14:40:13;;;;;;;2.15;0.70;;;;;;;;;;5062889;28;20273;-77
2022/09/01 14:42:45;;;;;;;1.35;0.50;;;;;;;;;;5075756;28;20202;-77
2022/09/01 14:45:17;;;;;;;0.90;0.77;;;;;;;;;;5063357;28;20619;-77
2022/09/01 14:47:46;;;;;;;0.85;0.70;;;;;;;;;;5068633;28;20219;-77
2022/09/01 14:50:15;;;;;;;2.40;0.80;;;;;;;;;;5057116;28;20223;-77
2022/09/01 14:52:49;;;;;;;0.95;0.63;;;;;;;;;;5067096;28;20297;-76
2022/09/01 14:55:18;;;;;;;0.93;0.75;;;;;;;;;;5067162;28;20204;-77
2022/09/01 14:57:47;;;;;;;0.70;0.70;;;;;;;;;;5060611;28;20199;-77
2022/09/01 15:00:17;;;;;;;0.80;0.70;;;;;;;;;;5072696;28;20219;-77
2022/09/01 15:02:46;;;;;;;1.83;0.70;;;;;;;;;;5069852;28;20267;-78
2022/09/01 15:05:15;;;;;;;2.22;0.77;;;;;;;;;;5076638;28;20225;-78
2022/09/01 15:07:45;;;;;;;0.70;0.57;;;;;;;;;;5074689;28;20198;-76
2022/09/01 15:10:15;;;;;;;1.80;0.80;;;;;;;;;;5074941;28;20215;-77
2022/09/01 15:12:53;;;;;;;0.70;0.68;;;;;;;;;;5060429;28;20564;-77
2022/09/01 15:15:23;;;;;;;0.52;0.52;;;;;;;;;;5074320;28;20206;-77
2022/09/01 15:17:51;;;;;;;1.45;0.68;;;;;;;;;;5072922;28;20206;-77
2022/09/01 15:23:06;;;;;;;2.50;0.65;;;;;;;;;;5058140;28;20248;-78
2022/09/01 15:25:35;;;;;;;1.05;0.63;;;;;;;;;;5059251;28;20194;-78